Time;durP1;ratioP1;P1;durP2;ratioP2;P2;SDS_P1;SDS_P2;PMS_P1;PMS_P2;Temp;Humidity;BMP_temperature;BMP_pressure;BME280_temperature;BME280_humidity;BME280_pressure;Samples;Min_cycle;Max_cycle;Signal;HPM_P1;HPM_P2
2022/06/27 04:00:48;;;;;;;4.90;3.38;;;16.60;99.90;;;;;;5849242;23;20050;-77
2022/06/27 04:03:13;;;;;;;6.05;2.90;;;16.60;99.90;;;;;;5016348;28;20492;-77
2022/06/27 04:05:39;;;;;;;7.32;3.13;;;16.60;99.90;;;;;;5016135;28;20109;-76
2022/06/27 04:08:05;;;;;;;5.68;3.17;;;16.60;99.90;;;;;;5015755;28;20038;-77
2022/06/27 04:10:31;;;;;;;4.65;3.08;;;16.60;99.90;;;;;;5017347;28;20086;-77
2022/06/27 04:12:57;;;;;;;3.85;2.42;;;16.60;99.90;;;;;;5017239;28;20484;-77
2022/06/27 04:15:22;;;;;;;5.00;2.85;;;16.60;99.90;;;;;;5018081;28;20030;-77
2022/06/27 04:17:48;;;;;;;3.67;2.78;;;16.50;99.90;;;;;;5017025;28;20396;-77
2022/06/27 04:20:14;;;;;;;7.10;4.18;;;16.50;99.90;;;;;;5016523;28;20045;-77
2022/06/27 04:22:40;;;;;;;10.38;4.80;;;16.60;99.90;;;;;;5016434;28;20038;-77
2022/06/27 04:25:06;;;;;;;8.63;4.18;;;16.70;99.90;;;;;;5016368;28;20081;-77
2022/06/27 04:27:31;;;;;;;8.15;3.33;;;16.60;99.90;;;;;;5014703;28;20113;-77
2022/06/27 04:29:57;;;;;;;5.20;3.08;;;16.70;99.90;;;;;;5016720;28;20121;-77
2022/06/27 04:32:25;;;;;;;8.05;4.13;;;16.80;99.90;;;;;;5016399;28;20034;-77
2022/06/27 04:34:51;;;;;;;7.82;4.93;;;16.80;99.90;;;;;;5016560;28;20036;-77
2022/06/27 04:37:17;;;;;;;5.93;4.28;;;16.80;99.90;;;;;;5016281;28;20135;-77
2022/06/27 04:39:43;;;;;;;6.20;3.58;;;16.90;99.90;;;;;;5017010;28;20130;-77
2022/06/27 04:42:09;;;;;;;4.88;2.53;;;16.90;99.90;;;;;;5015743;28;20484;-77
2022/06/27 04:44:37;;;;;;;3.70;3.00;;;17.00;99.90;;;;;;5016386;28;20046;-77
2022/06/27 04:47:07;;;;;;;3.83;3.15;;;17.00;99.90;;;;;;5014569;28;20045;-77
2022/06/27 04:49:33;;;;;;;4.65;3.45;;;17.10;99.90;;;;;;5016189;28;20041;-77
2022/06/27 04:51:59;;;;;;;5.45;2.90;;;17.10;99.90;;;;;;5017982;28;20468;-77
2022/06/27 04:54:26;;;;;;;4.20;2.38;;;17.20;99.90;;;;;;5017172;28;20038;-77
2022/06/27 04:56:52;;;;;;;4.32;3.13;;;17.20;99.90;;;;;;5014056;28;20111;-77
2022/06/27 04:59:20;;;;;;;4.93;2.45;;;17.20;99.90;;;;;;5016101;28;20045;-77
2022/06/27 05:01:50;;;;;;;7.80;3.85;;;17.20;99.90;;;;;;5015252;28;20085;-77
2022/06/27 05:04:19;;;;;;;6.22;3.72;;;17.30;99.90;;;;;;5015716;28;20109;-77
2022/06/27 05:06:46;;;;;;;7.22;3.80;;;17.50;99.90;;;;;;5014019;28;20042;-77
2022/06/27 05:09:12;;;;;;;7.78;3.25;;;17.60;99.90;;;;;;5015875;28;20105;-77
2022/06/27 05:11:38;;;;;;;8.63;4.57;;;17.80;99.90;;;;;;5015721;28;20038;-77
2022/06/27 05:14:03;;;;;;;4.65;2.50;;;17.80;99.90;;;;;;5015883;28;20097;-77
2022/06/27 05:16:29;;;;;;;5.00;2.35;;;17.80;99.90;;;;;;5014032;28;20093;-77
2022/06/27 05:18:54;;;;;;;4.07;2.50;;;17.70;99.90;;;;;;5015716;28;20109;-77
2022/06/27 05:21:20;;;;;;;5.93;2.63;;;17.70;99.90;;;;;;5015358;28;20034;-77
2022/06/27 05:23:46;;;;;;;5.40;2.97;;;17.70;99.90;;;;;;5015634;28;20049;-77
2022/06/27 05:26:11;;;;;;;9.15;2.97;;;17.70;99.90;;;;;;5015513;28;20110;-79
2022/06/27 05:28:37;;;;;;;6.75;3.58;;;17.70;99.90;;;;;;5016302;28;20030;-79
2022/06/27 05:31:03;;;;;;;7.68;4.18;;;17.80;99.90;;;;;;5016567;28;20027;-79
2022/06/27 05:33:28;;;;;;;10.30;4.15;;;17.90;99.90;;;;;;5018352;28;20038;-79
2022/06/27 05:35:54;;;;;;;6.47;4.20;;;18.00;99.90;;;;;;5018089;28;20058;-77
2022/06/27 05:38:20;;;;;;;6.63;3.80;;;18.00;99.90;;;;;;5016944;28;20035;-78
2022/06/27 05:40:45;;;;;;;9.15;3.30;;;18.00;99.90;;;;;;5018337;28;20041;-78
2022/06/27 05:43:14;;;;;;;5.55;2.80;;;18.00;99.90;;;;;;5018690;28;20038;-78
2022/06/27 05:45:40;;;;;;;4.07;2.85;;;17.90;99.90;;;;;;5016685;28;20053;-78
2022/06/27 05:48:06;;;;;;;3.30;2.72;;;17.90;99.90;;;;;;5016937;28;20034;-79
2022/06/27 05:50:33;;;;;;;4.35;2.70;;;17.90;99.90;;;;;;5018398;28;20032;-78
2022/06/27 05:53:01;;;;;;;3.38;2.50;;;17.90;99.90;;;;;;5018704;28;20513;-78
2022/06/27 05:55:28;;;;;;;4.65;2.80;;;18.00;99.90;;;;;;5018411;28;20030;-79
2022/06/27 05:57:57;;;;;;;6.80;2.85;;;18.10;99.90;;;;;;5017291;28;20030;-78
2022/06/27 06:00:23;;;;;;;4.53;2.20;;;18.00;99.90;;;;;;5017487;28;20037;-77
2022/06/27 06:02:49;;;;;;;4.90;2.60;;;18.10;99.90;;;;;;5019463;28;20077;-77
2022/06/27 06:05:15;;;;;;;5.18;2.80;;;18.00;99.90;;;;;;5019407;28;20092;-79
2022/06/27 06:07:45;;;;;;;4.15;2.63;;;18.00;99.90;;;;;;5020177;28;20056;-78
2022/06/27 06:10:12;;;;;;;4.63;2.70;;;18.00;99.90;;;;;;5017118;28;20048;-79
2022/06/27 06:12:37;;;;;;;7.97;3.75;;;18.00;99.90;;;;;;5020764;28;20030;-77
2022/06/27 06:15:03;;;;;;;8.63;5.57;;;18.00;99.90;;;;;;5018630;28;20049;-80
2022/06/27 06:17:31;;;;;;;6.78;5.45;;;17.90;99.90;;;;;;5017423;28;20053;-80
2022/06/27 06:19:57;;;;;;;7.80;4.75;;;18.00;99.90;;;;;;5017002;28;20030;-79
2022/06/27 06:22:23;;;;;;;6.45;5.00;;;18.00;99.90;;;;;;5019173;28;20037;-79
2022/06/27 06:24:49;;;;;;;8.48;5.18;;;18.00;99.90;;;;;;5018558;28;20405;-79
2022/06/27 06:27:16;;;;;;;7.10;5.60;;;18.00;99.90;;;;;;5016547;28;20031;-80
2022/06/27 06:29:42;;;;;;;9.68;5.80;;;18.00;99.90;;;;;;5017552;28;20038;-79
2022/06/27 06:32:08;;;;;;;8.27;5.60;;;17.90;99.90;;;;;;5017625;28;20022;-78
2022/06/27 06:34:34;;;;;;;6.82;5.70;;;17.90;99.90;;;;;;5017846;28;20038;-78
2022/06/27 06:36:59;;;;;;;8.60;6.07;;;17.90;99.90;;;;;;5017262;28;20036;-78
2022/06/27 06:39:25;;;;;;;9.38;6.47;;;17.90;99.90;;;;;;5017555;28;21847;-78
2022/06/27 06:41:51;;;;;;;8.13;6.38;;;17.90;99.90;;;;;;5014713;28;20026;-74
2022/06/27 06:44:17;;;;;;;11.07;8.02;;;17.90;99.90;;;;;;5014584;28;20563;-73
2022/06/27 06:46:43;;;;;;;8.13;7.03;;;17.90;99.90;;;;;;5014045;28;20062;-73
2022/06/27 06:49:10;;;;;;;9.77;7.03;;;18.00;99.90;;;;;;5014551;28;20030;-72
2022/06/27 06:51:42;;;;;;;8.02;6.88;;;18.00;99.90;;;;;;5014355;28;20037;-74
2022/06/27 06:54:08;;;;;;;11.65;8.82;;;18.10;99.90;;;;;;5014480;28;20523;-73
2022/06/27 06:56:35;;;;;;;8.15;6.38;;;18.10;99.90;;;;;;5014058;28;20121;-73
2022/06/27 06:59:02;;;;;;;11.38;8.38;;;18.20;99.90;;;;;;5012897;28;20038;-73
2022/06/27 07:01:29;;;;;;;8.35;6.47;;;18.30;99.90;;;;;;5013590;28;20068;-73
2022/06/27 07:03:55;;;;;;;10.70;7.25;;;18.50;99.90;;;;;;5014307;28;20519;-73
2022/06/27 07:06:26;;;;;;;9.35;6.80;;;18.60;99.90;;;;;;5014006;28;20038;-72
2022/06/27 07:08:57;;;;;;;9.02;6.43;;;18.80;99.90;;;;;;5013007;28;20026;-72
2022/06/27 07:11:25;;;;;;;9.63;6.57;;;18.90;99.90;;;;;;5013841;28;20042;-72
2022/06/27 07:13:51;;;;;;;8.15;6.60;;;19.20;99.90;;;;;;5013994;28;20377;-73
2022/06/27 07:16:18;;;;;;;8.30;5.72;;;19.40;99.90;;;;;;5013345;28;20038;-73
2022/06/27 07:18:46;;;;;;;8.77;6.05;;;19.50;99.90;;;;;;4996995;28;20038;-74
2022/06/27 07:21:19;;;;;;;5.88;5.00;;;19.60;99.90;;;;;;5000193;28;20031;-73
2022/06/27 07:23:49;;;;;;;7.03;4.38;;;19.60;99.90;;;;;;5017798;28;20034;-73
2022/06/27 07:26:17;;;;;;;5.03;4.45;;;19.40;99.90;;;;;;5017041;28;20117;-73
2022/06/27 07:28:43;;;;;;;6.70;4.40;;;19.40;99.90;;;;;;5017337;28;20041;-73
2022/06/27 07:31:09;;;;;;;4.45;4.05;;;19.50;99.90;;;;;;5016919;28;20604;-73
2022/06/27 07:33:39;;;;;;;4.32;3.83;;;19.70;99.90;;;;;;5016553;28;20042;-73
2022/06/27 07:36:06;;;;;;;4.95;4.00;;;19.90;99.90;;;;;;5016552;28;20038;-73
2022/06/27 07:38:38;;;;;;;3.70;3.38;;;19.90;99.90;;;;;;5032700;28;20045;-73
2022/06/27 07:41:04;;;;;;;3.42;3.08;;;20.00;99.90;;;;;;5017302;28;20069;-73
2022/06/27 07:43:31;;;;;;;4.15;3.30;;;20.00;99.90;;;;;;5015915;28;20078;-73
2022/06/27 07:45:57;;;;;;;4.05;3.65;;;20.10;99.90;;;;;;5016587;28;20068;-73
2022/06/27 07:48:22;;;;;;;5.18;4.30;;;20.00;99.90;;;;;;5016048;28;20061;-73
2022/06/27 07:50:48;;;;;;;4.47;3.60;;;20.00;99.90;;;;;;5017213;28;20046;-75
2022/06/27 07:53:15;;;;;;;8.40;3.30;;;20.00;99.90;;;;;;5015754;28;20046;-73
2022/06/27 07:55:49;;;;;;;4.72;3.33;;;20.00;99.90;;;;;;5017105;28;20545;-73
2022/06/27 07:58:16;;;;;;;5.13;2.80;;;20.20;99.90;;;;;;5013523;28;20491;-74
2022/06/27 08:00:49;;;;;;;3.70;3.17;;;20.20;99.90;;;;;;5015117;28;20496;-74
2022/06/27 08:06:01;;;;;;;3.83;3.53;;;20.10;99.90;;;;;;5002472;28;20102;-74
2022/06/27 08:08:27;;;;;;;3.53;3.22;;;20.10;99.90;;;;;;5017095;28;20500;-73
2022/06/27 08:10:54;;;;;;;4.00;3.42;;;20.10;99.90;;;;;;5016550;28;20050;-73
2022/06/27 08:13:20;;;;;;;11.57;4.20;;;20.00;99.90;;;;;;5017047;28;20049;-73
2022/06/27 08:15:48;;;;;;;11.68;4.30;;;19.90;99.90;;;;;;5014177;28;20074;-73
2022/06/27 08:18:17;;;;;;;4.57;3.85;;;19.70;99.90;;;;;;5016259;28;20854;-73
2022/06/27 08:20:45;;;;;;;5.07;3.95;;;19.60;99.90;;;;;;5016049;28;20093;-73
2022/06/27 08:23:12;;;;;;;5.65;4.53;;;19.50;99.90;;;;;;5016176;28;20500;-73
2022/06/27 08:25:38;;;;;;;5.53;4.18;;;19.30;99.90;;;;;;5016118;28;20070;-73
2022/06/27 08:28:04;;;;;;;10.77;3.92;;;19.30;99.90;;;;;;5015892;28;20402;-73
2022/06/27 08:30:30;;;;;;;4.53;3.65;;;19.30;99.90;;;;;;5016183;28;20542;-73
2022/06/27 08:32:57;;;;;;;4.72;4.32;;;19.30;99.90;;;;;;5037676;28;20037;-73
2022/06/27 08:35:23;;;;;;;4.80;4.40;;;19.30;99.90;;;;;;5016079;28;20591;-74
2022/06/27 08:37:54;;;;;;;4.72;3.97;;;19.30;99.90;;;;;;5016187;28;20054;-73
2022/06/27 08:40:20;;;;;;;4.95;3.78;;;19.40;99.90;;;;;;5016470;28;20042;-73
2022/06/27 08:42:47;;;;;;;4.47;4.07;;;19.50;99.90;;;;;;5046959;28;20045;-73
2022/06/27 08:45:15;;;;;;;4.40;4.00;;;19.40;99.90;;;;;;5015144;28;20042;-73
2022/06/27 08:47:41;;;;;;;6.80;4.80;;;19.40;99.90;;;;;;5015737;28;20527;-73
2022/06/27 08:50:08;;;;;;;5.85;5.30;;;19.20;99.90;;;;;;5016312;28;20144;-73
2022/06/27 08:52:39;;;;;;;6.38;5.35;;;19.20;99.90;;;;;;5006248;28;20039;-73
2022/06/27 08:55:08;;;;;;;7.47;5.00;;;19.20;99.90;;;;;;5008606;28;20038;-73
2022/06/27 08:57:39;;;;;;;6.03;5.32;;;19.30;99.90;;;;;;5015238;28;20117;-73
2022/06/27 09:00:10;;;;;;;7.90;5.00;;;19.30;99.90;;;;;;5015754;28;20030;-72
2022/06/27 09:02:42;;;;;;;6.35;5.50;;;19.30;99.90;;;;;;5015549;28;20042;-73
2022/06/27 09:05:24;;;;;;;8.18;5.72;;;19.40;99.90;;;;;;5016243;28;20038;-73
2022/06/27 09:07:55;;;;;;;7.03;5.68;;;19.40;99.90;;;;;;5015589;28;20030;-74
2022/06/27 09:10:35;;;;;;;6.25;5.63;;;19.40;99.90;;;;;;5039913;28;20089;-74
2022/06/27 09:13:03;;;;;;;7.38;6.68;;;19.40;99.90;;;;;;4995258;28;20122;-73
2022/06/27 09:15:46;;;;;;;8.50;7.53;;;19.30;99.90;;;;;;5000849;28;20039;-78
2022/06/27 09:18:35;;;;;;;9.05;8.15;;;19.30;99.90;;;;;;5039499;28;20030;-73
2022/06/27 09:21:04;;;;;;;8.43;7.63;;;19.30;99.90;;;;;;5009734;28;20460;-73
2022/06/27 09:23:39;;;;;;;8.57;7.72;;;19.30;99.90;;;;;;5015635;28;20041;-74
2022/06/27 09:26:09;;;;;;;11.50;9.27;;;19.40;99.90;;;;;;5016078;28;20042;-75
2022/06/27 09:28:53;;;;;;;8.75;8.02;;;19.40;99.90;;;;;;5015840;28;20535;-74
2022/06/27 09:31:25;;;;;;;9.30;8.35;;;19.60;99.90;;;;;;5047140;28;20044;-73
2022/06/27 09:34:05;;;;;;;9.20;7.65;;;19.70;99.90;;;;;;5014900;28;20057;-74
2022/06/27 09:36:32;;;;;;;8.18;7.32;;;20.00;99.90;;;;;;5015531;28;20044;-75
2022/06/27 09:39:01;;;;;;;7.93;7.10;;;20.30;99.90;;;;;;5016025;28;20057;-75
2022/06/27 09:41:29;;;;;;;7.88;6.95;;;20.50;99.90;;;;;;5033104;28;20038;-75
2022/06/27 09:44:03;;;;;;;8.10;7.30;;;20.60;99.90;;;;;;5014687;28;20534;-76
2022/06/27 09:46:35;;;;;;;7.78;7.10;;;20.80;99.90;;;;;;5016455;28;20030;-75
2022/06/27 09:49:03;;;;;;;8.13;7.43;;;21.10;99.90;;;;;;5015226;28;20121;-75
2022/06/27 09:51:34;;;;;;;9.02;8.23;;;21.10;99.90;;;;;;5014564;28;20129;-75
2022/06/27 09:54:08;;;;;;;8.63;7.70;;;20.80;99.90;;;;;;5015534;28;20042;-75
2022/06/27 09:56:39;;;;;;;8.73;7.90;;;20.50;99.90;;;;;;5013741;28;20118;-74
2022/06/27 09:59:06;;;;;;;9.85;9.00;;;20.30;99.90;;;;;;5014231;28;20036;-76
2022/06/27 10:01:33;;;;;;;10.13;8.60;;;20.10;99.90;;;;;;5042176;28;20048;-74
2022/06/27 10:04:01;;;;;;;11.23;10.32;;;19.90;99.90;;;;;;5014648;28;20500;-74
2022/06/27 10:06:29;;;;;;;11.90;10.80;;;19.70;99.90;;;;;;5014240;28;20038;-74
2022/06/27 10:08:55;;;;;;;14.52;10.90;;;19.70;99.90;;;;;;5014362;28;20511;-76
2022/06/27 10:11:21;;;;;;;12.50;11.38;;;19.80;99.90;;;;;;5014133;28;20042;-73
2022/06/27 10:14:11;;;;;;;11.93;10.82;;;19.90;99.90;;;;;;5014126;28;20034;-75
2022/06/27 10:16:53;;;;;;;11.13;9.98;;;20.50;99.90;;;;;;4997093;28;20077;-75
2022/06/27 10:19:20;;;;;;;12.43;11.20;;;21.30;99.90;;;;;;5013862;28;20035;-75
2022/06/27 10:21:47;;;;;;;11.30;10.05;;;21.50;99.90;;;;;;5014376;28;20125;-75
2022/06/27 10:24:19;;;;;;;10.70;9.68;;;21.80;99.90;;;;;;5014408;28;20035;-75
2022/06/27 10:26:46;;;;;;;14.32;12.82;;;22.10;99.90;;;;;;5020103;28;20034;-75
2022/06/27 10:29:29;;;;;;;10.82;9.75;;;22.40;99.90;;;;;;5012610;28;20026;-75
2022/06/27 10:31:56;;;;;;;6.65;5.95;;;22.90;99.90;;;;;;5014403;28;20027;-75
2022/06/27 10:34:40;;;;;;;8.20;7.22;;;23.20;99.90;;;;;;5014194;28;20101;-76
2022/06/27 10:37:28;;;;;;;6.43;5.38;;;23.60;99.90;;;;;;5014413;28;20073;-74
2022/06/27 10:40:19;;;;;;;8.45;5.80;;;24.00;99.90;;;;;;5010908;28;20491;-74
2022/06/27 10:42:57;;;;;;;6.32;5.72;;;24.10;99.90;;;;;;5013428;28;20046;-74
2022/06/27 10:45:29;;;;;;;5.05;4.55;;;24.00;99.90;;;;;;5012848;28;20161;-74
2022/06/27 10:47:57;;;;;;;5.40;4.20;;;23.30;99.90;;;;;;4994663;28;20031;-74
2022/06/27 10:50:26;;;;;;;4.88;4.43;;;22.70;99.90;;;;;;5013342;28;20045;-74
2022/06/27 10:53:22;;;;;;;5.05;4.65;;;22.20;99.90;;;;;;5014096;28;20041;-73
2022/06/27 10:55:48;;;;;;;5.00;4.60;;;21.70;99.90;;;;;;5015517;28;20050;-74
2022/06/27 10:58:31;;;;;;;5.10;4.70;;;21.60;99.90;;;;;;5017427;28;20404;-73
2022/06/27 11:01:14;;;;;;;4.72;4.32;;;21.60;99.90;;;;;;5016500;28;20041;-74
2022/06/27 11:03:40;;;;;;;4.70;4.30;;;21.90;99.90;;;;;;5017500;28;20057;-74
2022/06/27 11:06:06;;;;;;;5.53;4.60;;;22.10;99.90;;;;;;5016665;28;20039;-74
2022/06/27 11:08:34;;;;;;;4.43;4.03;;;22.20;99.90;;;;;;5017017;28;20039;-74
2022/06/27 11:11:01;;;;;;;4.35;3.55;;;22.00;99.90;;;;;;5016942;28;20416;-74
2022/06/27 11:13:45;;;;;;;3.90;3.50;;;21.90;99.90;;;;;;5043477;28;20031;-74
2022/06/27 11:16:23;;;;;;;4.25;3.65;;;21.90;99.90;;;;;;5016739;28;20499;-74
2022/06/27 11:18:58;;;;;;;4.28;3.75;;;21.80;99.90;;;;;;5000070;28;20058;-74
2022/06/27 11:21:32;;;;;;;3.72;3.42;;;21.90;99.90;;;;;;5048991;28;20042;-74
2022/06/27 11:24:00;;;;;;;3.40;3.03;;;22.00;99.90;;;;;;5017227;28;20045;-74
2022/06/27 11:26:31;;;;;;;3.40;3.10;;;22.20;99.90;;;;;;5017057;28;20132;-74
2022/06/27 11:32:18;;;;;;;4.20;3.80;;;21.60;99.90;;;;;;4997574;28;20121;-74
2022/06/27 11:34:49;;;;;;;4.07;3.78;;;21.30;99.90;;;;;;4975512;28;20047;-74
2022/06/27 11:37:17;;;;;;;4.63;4.22;;;21.10;99.90;;;;;;5038412;28;20093;-74
2022/06/27 11:40:00;;;;;;;4.55;4.15;;;21.00;99.90;;;;;;5016842;28;20042;-74
2022/06/27 11:42:31;;;;;;;4.78;4.38;;;20.90;99.90;;;;;;5016791;28;20026;-75
2022/06/27 11:45:06;;;;;;;6.45;4.35;;;20.90;99.90;;;;;;5014431;28;20042;-75
2022/06/27 11:47:34;;;;;;;4.55;4.15;;;20.90;99.90;;;;;;5016100;28;20034;-75
2022/06/27 11:50:02;;;;;;;4.05;3.67;;;21.20;99.90;;;;;;5016747;28;20463;-73
2022/06/27 11:52:42;;;;;;;6.18;3.97;;;21.60;99.90;;;;;;5016582;28;20034;-74
2022/06/27 11:55:09;;;;;;;4.03;3.65;;;22.00;99.90;;;;;;5002938;28;20112;-74
2022/06/27 11:57:35;;;;;;;4.32;3.70;;;22.30;99.90;;;;;;5022420;28;20045;-74
2022/06/27 12:00:04;;;;;;;4.35;3.95;;;22.50;99.90;;;;;;5016092;28;20506;-75
2022/06/27 12:02:36;;;;;;;4.30;3.90;;;23.00;99.90;;;;;;5016178;28;20030;-74
2022/06/27 12:05:16;;;;;;;4.80;4.38;;;23.20;99.90;;;;;;5016918;28;20066;-74
2022/06/27 12:07:55;;;;;;;5.05;4.07;;;23.50;99.90;;;;;;5014023;28;20042;-74
2022/06/27 12:11:17;;;;;;;4.35;3.72;;;23.40;99.90;;;;;;5018855;28;20050;-74
2022/06/27 12:13:32;;;;;;;5.07;4.22;;;23.50;99.90;;;;;;5008901;28;20046;-74
2022/06/27 12:16:03;;;;;;;5.10;4.60;;;23.50;99.90;;;;;;5013504;28;20053;-74
2022/06/27 12:18:41;;;;;;;4.35;4.05;;;23.50;99.90;;;;;;5015061;28;20042;-75
2022/06/27 12:21:07;;;;;;;4.30;3.90;;;23.60;99.90;;;;;;5014180;28;20422;-74
2022/06/27 12:23:33;;;;;;;4.10;3.80;;;23.60;99.90;;;;;;5014657;28;20566;-74
2022/06/27 12:25:58;;;;;;;4.75;3.80;;;23.80;99.90;;;;;;5016114;28;20181;-74
2022/06/27 12:28:24;;;;;;;4.68;3.97;;;23.60;99.90;;;;;;5016705;28;20117;-75
2022/06/27 12:30:50;;;;;;;4.03;3.63;;;23.40;99.90;;;;;;5035503;28;20078;-75
2022/06/27 12:33:16;;;;;;;4.22;3.45;;;23.50;99.90;;;;;;5020399;28;20034;-77
2022/06/27 12:35:41;;;;;;;5.60;4.15;;;23.50;99.90;;;;;;5049718;28;20096;-74
2022/06/27 12:38:07;;;;;;;5.45;4.20;;;23.50;99.90;;;;;;5017022;28;20049;-77
2022/06/27 12:40:33;;;;;;;5.18;4.55;;;23.30;99.90;;;;;;5017018;28;20542;-76
2022/06/27 12:42:59;;;;;;;4.88;4.22;;;23.30;99.90;;;;;;5017956;28;20033;-76
2022/06/27 12:45:25;;;;;;;5.03;3.97;;;23.70;99.90;;;;;;5016515;28;20125;-76
2022/06/27 12:47:51;;;;;;;5.40;4.47;;;24.20;99.90;;;;;;5018389;28;20094;-76
2022/06/27 12:50:16;;;;;;;4.18;3.78;;;24.80;99.90;;;;;;5017378;28;20046;-77
2022/06/27 12:52:43;;;;;;;5.13;4.03;;;24.80;99.90;;;;;;5017542;28;20022;-77
2022/06/27 12:55:08;;;;;;;6.15;3.85;;;25.10;99.90;;;;;;5048510;28;20042;-76
2022/06/27 12:57:34;;;;;;;5.95;4.15;;;25.50;99.90;;;;;;5016420;28;20038;-76
2022/06/27 13:00:00;;;;;;;3.83;3.28;;;25.60;99.90;;;;;;5010756;28;20043;-77
2022/06/27 13:02:27;;;;;;;5.05;3.30;;;25.20;99.90;;;;;;5015771;28;20199;-77
2022/06/27 13:04:52;;;;;;;4.43;3.50;;;24.90;99.90;;;;;;5048275;28;20117;-75
2022/06/27 13:07:18;;;;;;;4.80;3.30;;;25.30;99.90;;;;;;5015286;28;20038;-76
2022/06/27 13:09:44;;;;;;;3.28;2.95;;;25.60;99.90;;;;;;5015377;28;20093;-76
2022/06/27 13:12:11;;;;;;;3.22;2.88;;;25.90;99.90;;;;;;5016580;28;20030;-77
2022/06/27 13:14:36;;;;;;;3.78;3.00;;;26.00;99.90;;;;;;5016477;28;20045;-75
2022/06/27 13:17:03;;;;;;;3.42;3.13;;;25.90;99.70;;;;;;5047484;28;20089;-75
2022/06/27 13:19:29;;;;;;;4.55;2.95;;;25.80;97.70;;;;;;5015627;28;20030;-76
2022/06/27 13:21:55;;;;;;;3.22;2.92;;;25.70;97.70;;;;;;5047460;28;20492;-78
2022/06/27 13:24:20;;;;;;;3.30;3.00;;;25.40;98.50;;;;;;5048246;28;20449;-75
2022/06/27 13:26:46;;;;;;;5.45;2.70;;;25.40;99.50;;;;;;5015621;28;20035;-76
2022/06/27 13:29:12;;;;;;;4.85;3.13;;;25.30;98.60;;;;;;5014467;28;20042;-75
2022/06/27 13:31:37;;;;;;;3.95;3.20;;;25.10;98.30;;;;;;5013280;28;20034;-76
2022/06/27 13:34:03;;;;;;;3.30;2.80;;;24.90;99.90;;;;;;5015639;28;20045;-75
2022/06/27 13:36:28;;;;;;;4.45;3.38;;;25.00;99.70;;;;;;5015232;28;20377;-76
2022/06/27 13:38:54;;;;;;;3.47;3.17;;;25.30;98.90;;;;;;5015719;28;20030;-76
2022/06/27 13:41:19;;;;;;;4.50;3.30;;;25.70;98.30;;;;;;5015367;28;20050;-76
2022/06/27 13:43:45;;;;;;;4.18;3.72;;;25.80;96.90;;;;;;5015134;28;20484;-76
2022/06/27 13:46:10;;;;;;;4.28;3.85;;;25.30;98.50;;;;;;5015057;28;20488;-76
2022/06/27 13:48:36;;;;;;;5.95;3.45;;;25.20;99.00;;;;;;5015475;28;20042;-76
2022/06/27 13:51:01;;;;;;;4.43;4.03;;;25.10;98.50;;;;;;5015278;28;20085;-75
2022/06/27 13:53:27;;;;;;;4.88;3.88;;;24.80;99.90;;;;;;5015455;28;20062;-76
2022/06/27 13:55:52;;;;;;;4.22;3.45;;;24.90;99.90;;;;;;5047032;28;20484;-76
2022/06/27 13:58:18;;;;;;;4.95;3.20;;;24.90;99.50;;;;;;5015186;28;20057;-75
2022/06/27 14:00:44;;;;;;;4.20;3.75;;;24.90;99.80;;;;;;5014381;28;20129;-76
2022/06/27 14:03:09;;;;;;;4.35;3.85;;;24.90;99.00;;;;;;5015269;28;20042;-76
2022/06/27 14:05:35;;;;;;;4.30;3.20;;;25.00;98.90;;;;;;5046753;28;22083;-76
2022/06/27 14:08:01;;;;;;;5.00;3.50;;;25.30;99.80;;;;;;5015204;28;20085;-76
2022/06/27 14:10:29;;;;;;;4.78;3.30;;;25.70;98.80;;;;;;5015141;28;20034;-76
2022/06/27 14:12:55;;;;;;;6.88;3.53;;;25.90;98.40;;;;;;5046779;28;20130;-76
2022/06/27 14:15:23;;;;;;;4.00;3.60;;;25.70;97.70;;;;;;5014789;28;20134;-76
2022/06/27 14:17:49;;;;;;;5.95;3.40;;;25.30;98.80;;;;;;5014718;28;20030;-75
2022/06/27 14:20:16;;;;;;;3.92;3.53;;;24.90;99.70;;;;;;5046419;28;20038;-76
2022/06/27 14:22:42;;;;;;;6.25;3.60;;;24.90;99.20;;;;;;5015180;28;20061;-75
2022/06/27 14:25:09;;;;;;;3.85;3.50;;;24.90;99.90;;;;;;5012433;28;20047;-76
2022/06/27 14:27:35;;;;;;;4.07;3.67;;;25.00;98.70;;;;;;5018323;28;20038;-75
2022/06/27 14:30:04;;;;;;;6.20;4.05;;;25.00;99.70;;;;;;5010794;28;20543;-75
2022/06/27 14:32:30;;;;;;;7.35;4.45;;;24.90;99.90;;;;;;5016996;28;20034;-75
2022/06/27 14:34:56;;;;;;;4.75;4.18;;;25.00;99.90;;;;;;5034028;28;20046;-76
2022/06/27 14:37:21;;;;;;;6.30;4.20;;;25.20;99.90;;;;;;5034939;28;20105;-75
2022/06/27 14:39:47;;;;;;;7.78;4.68;;;25.80;99.20;;;;;;5016371;28;20041;-75
2022/06/27 14:42:13;;;;;;;6.68;4.72;;;26.10;98.50;;;;;;5046738;28;20030;-76
2022/06/27 14:44:39;;;;;;;6.00;3.97;;;26.20;98.40;;;;;;5014582;28;20049;-76
2022/06/27 14:47:09;;;;;;;6.63;4.35;;;25.70;96.40;;;;;;5046351;28;20105;-76
2022/06/27 14:49:35;;;;;;;5.40;4.90;;;25.30;97.80;;;;;;5031104;28;20033;-77
2022/06/27 14:52:01;;;;;;;4.47;4.03;;;25.00;99.90;;;;;;5031925;28;20038;-76
2022/06/27 14:54:27;;;;;;;7.40;4.85;;;24.60;99.60;;;;;;5035018;28;20034;-76
2022/06/27 14:56:53;;;;;;;6.78;4.85;;;24.90;99.90;;;;;;5030916;28;20641;-75
2022/06/27 14:59:19;;;;;;;5.80;5.13;;;25.10;99.50;;;;;;5032578;28;20029;-75
2022/06/27 15:01:44;;;;;;;7.40;4.50;;;25.50;99.90;;;;;;5030156;28;20451;-76
2022/06/27 15:04:11;;;;;;;5.10;4.53;;;25.60;99.90;;;;;;5034666;28;20042;-77
2022/06/27 15:06:37;;;;;;;5.38;4.60;;;25.20;99.90;;;;;;5029575;28;20097;-77
2022/06/27 15:09:07;;;;;;;4.82;4.00;;;25.00;99.90;;;;;;5033997;28;20068;-77
2022/06/27 15:11:44;;;;;;;6.28;4.15;;;24.60;99.90;;;;;;5032193;28;20140;-77
2022/06/27 15:14:12;;;;;;;4.93;4.18;;;24.40;99.90;;;;;;5053080;28;20053;-77
2022/06/27 15:16:44;;;;;;;4.05;3.70;;;24.00;99.90;;;;;;5025775;28;20076;-76
2022/06/27 15:19:19;;;;;;;6.10;4.07;;;23.80;99.90;;;;;;5035200;28;20030;-77
2022/06/27 15:21:46;;;;;;;7.40;3.97;;;23.80;99.90;;;;;;5030700;28;20613;-77
2022/06/27 15:24:13;;;;;;;5.32;4.40;;;23.50;99.90;;;;;;5039388;28;20728;-77
2022/06/27 15:26:44;;;;;;;5.38;4.05;;;23.30;99.90;;;;;;5029839;28;20550;-77
2022/06/27 15:29:25;;;;;;;6.38;4.13;;;23.10;99.90;;;;;;5038450;28;20037;-77
2022/06/27 15:32:02;;;;;;;5.28;4.18;;;22.90;99.90;;;;;;5035215;28;20050;-77
2022/06/27 15:34:27;;;;;;;5.72;4.60;;;22.80;99.90;;;;;;5036409;28;20436;-77
2022/06/27 15:36:53;;;;;;;5.93;4.53;;;23.10;99.90;;;;;;5024490;28;20041;-76
2022/06/27 15:39:19;;;;;;;6.57;3.97;;;24.10;99.90;;;;;;5019425;28;20041;-77
2022/06/27 15:41:45;;;;;;;5.88;3.75;;;27.10;99.20;;;;;;5018110;28;20034;-75
2022/06/27 15:44:10;;;;;;;3.97;3.60;;;28.90;95.40;;;;;;5017192;28;20035;-74
2022/06/27 15:46:36;;;;;;;4.18;3.75;;;29.30;92.40;;;;;;5023132;28;20034;-75
2022/06/27 15:49:02;;;;;;;4.85;3.78;;;28.10;93.30;;;;;;5035519;28;20050;-75
2022/06/27 15:51:29;;;;;;;4.32;3.78;;;27.10;94.80;;;;;;5034221;28;20041;-75
2022/06/27 15:53:55;;;;;;;4.57;3.83;;;25.90;98.50;;;;;;5037952;28;20042;-75
2022/06/27 15:56:20;;;;;;;4.20;3.78;;;25.20;99.40;;;;;;5028685;28;20042;-75
2022/06/27 15:58:46;;;;;;;5.47;4.00;;;24.60;99.30;;;;;;5035943;28;20054;-75
2022/06/27 16:01:12;;;;;;;5.85;3.90;;;24.10;99.90;;;;;;5037237;28;20042;-78
2022/06/27 16:03:38;;;;;;;4.78;4.32;;;23.60;99.90;;;;;;5038107;28;20038;-77
2022/06/27 16:06:04;;;;;;;6.63;4.53;;;23.20;99.90;;;;;;5034979;28;20105;-74
2022/06/27 16:08:30;;;;;;;5.43;4.47;;;22.70;99.90;;;;;;5048447;28;20069;-75
2022/06/27 16:10:56;;;;;;;6.90;4.50;;;22.20;99.90;;;;;;5036695;28;20451;-75
2022/06/27 16:13:22;;;;;;;3.97;3.55;;;22.00;99.90;;;;;;5036043;28;20034;-73
2022/06/27 16:15:49;;;;;;;3.90;3.53;;;21.80;99.90;;;;;;5036954;28;20037;-74
2022/06/27 16:18:15;;;;;;;4.97;3.80;;;21.60;99.90;;;;;;5021424;28;20496;-73
2022/06/27 16:20:41;;;;;;;3.70;3.40;;;21.50;99.90;;;;;;5015915;28;20042;-75
2022/06/27 16:23:08;;;;;;;6.90;3.90;;;21.40;99.90;;;;;;5025718;28;20055;-75
2022/06/27 16:25:33;;;;;;;4.30;3.90;;;21.40;99.90;;;;;;5036136;28;20060;-74
2022/06/27 16:27:59;;;;;;;5.00;3.72;;;21.50;99.90;;;;;;5019025;28;20034;-75
2022/06/27 16:33:11;;;;;;;6.68;4.25;;;21.80;99.90;;;;;;5029313;28;20034;-75
2022/06/27 16:35:37;;;;;;;4.75;4.35;;;21.60;99.90;;;;;;5016384;28;20034;-77
2022/06/27 16:38:03;;;;;;;4.95;4.50;;;21.50;99.90;;;;;;5016248;28;20038;-75
2022/06/27 16:40:28;;;;;;;5.20;4.50;;;21.20;99.90;;;;;;5015546;28;20054;-74
2022/06/27 16:45:38;;;;;;;6.20;4.63;;;20.80;99.90;;;;;;5016215;28;20090;-78
2022/06/27 16:48:04;;;;;;;5.68;5.03;;;20.60;99.90;;;;;;5015624;28;20038;-73
2022/06/27 16:50:29;;;;;;;7.20;5.20;;;20.30;99.90;;;;;;5015566;28;20101;-73
2022/06/27 16:52:55;;;;;;;6.20;5.30;;;20.00;99.90;;;;;;5015695;28;20069;-73
2022/06/27 16:55:20;;;;;;;6.22;5.10;;;19.90;99.90;;;;;;5016017;28;20448;-74
2022/06/27 16:57:46;;;;;;;6.18;5.18;;;19.80;99.90;;;;;;5016242;28;20473;-75
2022/06/27 17:00:13;;;;;;;6.38;5.78;;;19.60;99.90;;;;;;5015525;28;20054;-74
2022/06/27 17:02:39;;;;;;;7.35;5.93;;;19.60;99.90;;;;;;5031589;28;20038;-73